Back to Top

Language: 

My Weather Underground Personal Weather Station Historical Data with Graphs...

Delerius Weather Station Historical Data
Daily Summary for January 27, 2018 Units:  Metric    English   Both
« Previous Day
Next Day »
Daily Weekly Monthly Yearly Custom
  High: Low: Average:
Temperature: 12.2 °C 2.7 °C 7.2 °C
Dew Point: 10 °C 1.6 °C 5.1 °C
Humidity: 93 % 76 % 87 %
Wind Speed: 48.3 km/h 0 km/h 17.9 km/h
Wind Gust: 53.1 km/h - -
Wind:- - SW
Pressure: 1024.3 hPa 1015.5 hPa -
Precipitation: 0 mm    
Historical Graphs
 
 
Tabular Data for January 27, 2018
Time Temperature Dew Point Pressure Wind Wind Speed Wind Gust Humidity Rainfall Rate (Hourly) solar Conditions
00:04 2.7 °C 1.6 °C 1024.3 hPa Calm     92 % 0 mm 0 W/m2
00:09 2.7 °C 1.6 °C 1024.3 hPa Calm   3.2 km/h 92 % 0 mm 0 W/m2
00:14 2.7 °C 1.7 °C 1024.3 hPa Calm     93 % 0 mm 0 W/m2
00:19 2.8 °C 1.8 °C 1024.3 hPa SW 3.2 km/h 8 km/h 93 % 0 mm 0 W/m2
00:24 2.9 °C 1.9 °C 1024.3 hPa Calm     93 % 0 mm 0 W/m2
00:29 2.9 °C 1.9 °C 1024.3 hPa Calm     93 % 0 mm 0 W/m2
00:34 2.9 °C 1.9 °C 1024.3 hPa Calm     93 % 0 mm 0 W/m2
00:39 3 °C 2 °C 1024.3 hPa Calm     93 % 0 mm 0 W/m2
00:44 3.1 °C 2.1 °C 1024.3 hPa East 3.2 km/h 8 km/h 93 % 0 mm 0 W/m2
00:49 3.2 °C 2.2 °C 1024.3 hPa ESE 3.2 km/h 8 km/h 93 % 0 mm 0 W/m2
00:54 3.3 °C 2.3 °C 1023.9 hPa Calm     93 % 0 mm 0 W/m2
00:59 3.3 °C 2.1 °C 1023.9 hPa Calm     92 % 0 mm 0 W/m2
01:04 3.3 °C 2.1 °C 1023.9 hPa SW 3.2 km/h 8 km/h 92 % 0 mm 0 W/m2
01:09 3.4 °C 2.4 °C 1023.9 hPa SW 3.2 km/h 12.9 km/h 93 % 0 mm 0 W/m2
01:14 3.6 °C 2.6 °C 1023.9 hPa SW 4.8 km/h 20.9 km/h 93 % 0 mm 0 W/m2
01:19 4.2 °C 3.2 °C 1023.9 hPa SW 12.9 km/h 20.9 km/h 93 % 0 mm 0 W/m2
01:24 4.4 °C 3.2 °C 1023.9 hPa WSW 9.7 km/h 17.7 km/h 92 % 0 mm 0 W/m2
01:29 4.7 °C 3.3 °C 1023.9 hPa WSW 12.9 km/h 22.5 km/h 91 % 0 mm 0 W/m2
01:34 4.8 °C 3.3 °C 1023.9 hPa WSW 12.9 km/h 19.3 km/h 90 % 0 mm 0 W/m2
01:39 4.9 °C 3.2 °C 1023.6 hPa SW 14.5 km/h 20.9 km/h 89 % 0 mm 0 W/m2
01:44 4.9 °C 3.2 °C 1023.6 hPa SW 17.7 km/h 29 km/h 89 % 0 mm 0 W/m2
01:49 5 °C 3.2 °C 1023.6 hPa WSW 12.9 km/h 19.3 km/h 88 % 0 mm 0 W/m2
01:54 5 °C 3.2 °C 1023.6 hPa SW 17.7 km/h 24.1 km/h 88 % 0 mm 0 W/m2
01:59 5 °C 3.2 °C 1023.2 hPa SW 17.7 km/h 30.6 km/h 88 % 0 mm 0 W/m2
02:04 5.1 °C 3.3 °C 1023.2 hPa SW 19.3 km/h 29 km/h 88 % 0 mm 0 W/m2
02:09 5.1 °C 3.1 °C 1023.2 hPa SW 17.7 km/h 24.1 km/h 87 % 0 mm 0 W/m2
02:14 5 °C 3 °C 1023.6 hPa WSW 12.9 km/h 20.9 km/h 87 % 0 mm 0 W/m2
02:19 5 °C 3 °C 1023.6 hPa SW 16.1 km/h 24.1 km/h 87 % 0 mm 0 W/m2
02:24 4.9 °C 2.9 °C 1023.6 hPa SW 12.9 km/h 19.3 km/h 87 % 0 mm 0 W/m2
02:29 4.9 °C 2.9 °C 1023.6 hPa SW 14.5 km/h 20.9 km/h 87 % 0 mm 0 W/m2
02:34 4.9 °C 2.9 °C 1023.6 hPa SW 12.9 km/h 20.9 km/h 87 % 0 mm 0 W/m2
02:39 4.8 °C 2.8 °C 1023.9 hPa SW 9.7 km/h 14.5 km/h 87 % 0 mm 0 W/m2
02:44 4.7 °C 2.7 °C 1023.9 hPa SW 11.3 km/h 17.7 km/h 87 % 0 mm 0 W/m2
02:49 4.6 °C 2.6 °C 1023.9 hPa SW 6.4 km/h 12.9 km/h 87 % 0 mm 0 W/m2
02:54 4.6 °C 2.6 °C 1023.6 hPa SW 6.4 km/h 11.3 km/h 87 % 0 mm 0 W/m2
02:59 4.4 °C 2.4 °C 1023.6 hPa SSW 4.8 km/h 11.3 km/h 87 % 0 mm 0 W/m2
03:04 4.3 °C 2.5 °C 1023.6 hPa SSW 8 km/h 14.5 km/h 88 % 0 mm 0 W/m2
03:09 4.2 °C 2.4 °C 1023.6 hPa SSW 9.7 km/h 12.9 km/h 88 % 0 mm 0 W/m2
03:14 4.2 °C 2.4 °C 1023.6 hPa SSW 8 km/h 12.9 km/h 88 % 0 mm 0 W/m2
03:19 4.1 °C 2.3 °C 1023.6 hPa SW 11.3 km/h 14.5 km/h 88 % 0 mm 0 W/m2
03:24 4 °C 2.2 °C 1023.6 hPa SW 11.3 km/h 16.1 km/h 88 % 0 mm 0 W/m2
03:30 3.9 °C 2.3 °C 1023.6 hPa SW 11.3 km/h 14.5 km/h 89 % 0 mm 0 W/m2
03:35 3.9 °C 2.3 °C 1023.2 hPa SW 11.3 km/h 17.7 km/h 89 % 0 mm 0 W/m2
03:40 3.9 °C 2.3 °C 1023.2 hPa SSW 9.7 km/h 14.5 km/h 89 % 0 mm 0 W/m2
03:45 3.8 °C 2.2 °C 1023.2 hPa SSW 8 km/h 14.5 km/h 89 % 0 mm 0 W/m2
03:50 3.9 °C 2.3 °C 1023.2 hPa SSW 8 km/h 14.5 km/h 89 % 0 mm 0 W/m2
03:55 3.9 °C 2.3 °C 1023.2 hPa South 11.3 km/h 19.3 km/h 89 % 0 mm 0 W/m2
04:00 3.9 °C 2.3 °C 1022.9 hPa South 11.3 km/h 17.7 km/h 89 % 0 mm 0 W/m2
04:05 4 °C 2.3 °C 1022.6 hPa South 11.3 km/h 20.9 km/h 89 % 0 mm 0 W/m2
04:10 4.1 °C 2.4 °C 1022.6 hPa South 11.3 km/h 17.7 km/h 89 % 0 mm 0 W/m2
04:15 4.1 °C 2.4 °C 1022.6 hPa South 11.3 km/h 19.3 km/h 89 % 0 mm 0 W/m2
04:20 4 °C 2.3 °C 1022.6 hPa SSW 12.9 km/h 19.3 km/h 89 % 0 mm 0 W/m2
04:25 4 °C 2.3 °C 1022.6 hPa South 12.9 km/h 22.5 km/h 89 % 0 mm 0 W/m2
04:30 4 °C 2.3 °C 1022.6 hPa SSW 12.9 km/h 20.9 km/h 89 % 0 mm 0 W/m2
04:35 3.9 °C 2.3 °C 1022.2 hPa SSW 16.1 km/h 30.6 km/h 89 % 0 mm 0 W/m2
04:40 3.9 °C 2.4 °C 1022.2 hPa SSW 20.9 km/h 29 km/h 90 % 0 mm 0 W/m2
04:45 4.1 °C 2.6 °C 1022.2 hPa SSW 20.9 km/h 29 km/h 90 % 0 mm 0 W/m2
04:50 4.1 °C 2.4 °C 1022.2 hPa SSW 19.3 km/h 29 km/h 89 % 0 mm 0 W/m2
04:55 4.2 °C 2.6 °C 1022.2 hPa SSW 17.7 km/h 32.2 km/h 89 % 0 mm 0 W/m2
05:00 4.1 °C 2.4 °C 1022.2 hPa SSW 12.9 km/h 19.3 km/h 89 % 0 mm 0 W/m2
05:05 4 °C 2.3 °C 1022.2 hPa SSW 9.7 km/h 14.5 km/h 89 % 0 mm 0 W/m2
05:10 3.9 °C 2.3 °C 1021.9 hPa SSW 6.4 km/h 11.3 km/h 89 % 0 mm 0 W/m2
05:15 3.9 °C 2.4 °C 1021.9 hPa SSW 12.9 km/h 19.3 km/h 90 % 0 mm 0 W/m2
05:20 3.9 °C 2.4 °C 1021.9 hPa South 12.9 km/h 24.1 km/h 90 % 0 mm 0 W/m2
05:25 4.1 °C 2.6 °C 1021.9 hPa SSW 14.5 km/h 22.5 km/h 90 % 0 mm 0 W/m2
05:30 4.1 °C 2.6 °C 1021.9 hPa SSW 16.1 km/h 25.7 km/h 90 % 0 mm 0 W/m2
05:35 4.2 °C 2.6 °C 1021.6 hPa SSW 11.3 km/h 19.3 km/h 89 % 0 mm 0 W/m2
05:40 4.2 °C 2.6 °C 1021.6 hPa South 14.5 km/h 22.5 km/h 89 % 0 mm 0 W/m2
05:45 4.2 °C 2.6 °C 1021.6 hPa SSW 14.5 km/h 19.3 km/h 89 % 0 mm 0 W/m2
05:50 4.1 °C 2.4 °C 1021.6 hPa SW 16.1 km/h 24.1 km/h 89 % 0 mm 0 W/m2
05:55 4.1 °C 2.4 °C 1021.6 hPa SSW 14.5 km/h 22.5 km/h 89 % 0 mm 0 W/m2
06:00 4 °C 2.3 °C 1021.6 hPa South 12.9 km/h 17.7 km/h 89 % 0 mm 0 W/m2
06:05 3.9 °C 2.3 °C 1021.6 hPa South 11.3 km/h 19.3 km/h 89 % 0 mm 0 W/m2
06:10 3.9 °C 2.4 °C 1021.6 hPa South 8 km/h 12.9 km/h 90 % 0 mm 0 W/m2
06:15 3.9 °C 2.4 °C 1021.2 hPa South 11.3 km/h 17.7 km/h 90 % 0 mm 0 W/m2
06:20 3.9 °C 2.4 °C 1021.2 hPa South 14.5 km/h 20.9 km/h 90 % 0 mm 0 W/m2
06:25 3.9 °C 2.4 °C 1021.2 hPa South 9.7 km/h 14.5 km/h 90 % 0 mm 0 W/m2
06:30 4 °C 2.5 °C 1021.2 hPa SSW 11.3 km/h 19.3 km/h 90 % 0 mm 0 W/m2
06:35 4.3 °C 2.9 °C 1020.9 hPa SSW 11.3 km/h 19.3 km/h 91 % 0 mm 0 W/m2
06:40 4.6 °C 3.1 °C 1020.9 hPa SSW 14.5 km/h 24.1 km/h 90 % 0 mm 0 W/m2
06:45 4.7 °C 3.1 °C 1020.9 hPa South 14.5 km/h 24.1 km/h 89 % 0 mm 0 W/m2
06:50 4.8 °C 3.2 °C 1020.9 hPa South 9.7 km/h 16.1 km/h 89 % 0 mm 0 W/m2
06:55 4.7 °C 3.1 °C 1020.9 hPa SSE 9.7 km/h 16.1 km/h 89 % 0 mm 0 W/m2
07:00 4.7 °C 3.1 °C 1020.5 hPa SSE 8 km/h 14.5 km/h 89 % 0 mm 0 W/m2
07:05 4.7 °C 2.9 °C 1020.5 hPa ESE 8 km/h 14.5 km/h 88 % 0 mm 0 W/m2
07:10 4.7 °C 3.1 °C 1020.5 hPa ESE 8 km/h 11.3 km/h 89 % 0 mm 0 W/m2
07:15 4.7 °C 3.1 °C 1020.5 hPa SE 11.3 km/h 16.1 km/h 89 % 0 mm 0 W/m2
07:20 4.7 °C 3.1 °C 1020.5 hPa SSE 4.8 km/h 11.3 km/h 89 % 0 mm 0 W/m2
07:25 4.8 °C 3.2 °C 1020.2 hPa ESE 4.8 km/h 8 km/h 89 % 0 mm 0 W/m2
07:30 4.8 °C 3.2 °C 1020.2 hPa SSW 3.2 km/h 11.3 km/h 89 % 0 mm 0 W/m2
07:35 5.2 °C 3.7 °C 1020.2 hPa SW 11.3 km/h 20.9 km/h 90 % 0 mm 0 W/m2
07:40 5.7 °C 4.2 °C 1020.2 hPa SSW 20.9 km/h 29 km/h 90 % 0 mm 0 W/m2
07:45 5.9 °C 4.2 °C 1019.9 hPa SW 11.3 km/h 22.5 km/h 89 % 0 mm 0 W/m2
07:50 6.1 °C 4.3 °C 1019.9 hPa SSW 19.3 km/h 29 km/h 88 % 0 mm 0 W/m2
07:55 6.1 °C 4.3 °C 1019.5 hPa South 12.9 km/h 20.9 km/h 88 % 0 mm 0 W/m2
08:00 6.1 °C 4.3 °C 1019.5 hPa SSE 11.3 km/h 19.3 km/h 88 % 0 mm 0 W/m2
08:05 6.1 °C 4.3 °C 1019.5 hPa SE 11.3 km/h 17.7 km/h 88 % 0 mm 0 W/m2
08:10 6.1 °C 4.3 °C 1019.5 hPa SSE 12.9 km/h 20.9 km/h 88 % 0 mm 0 W/m2
08:15 6.1 °C 4.3 °C 1019.5 hPa South 11.3 km/h 24.1 km/h 88 % 0 mm 0 W/m2
08:20 6.2 °C 4.5 °C 1019.5 hPa South 14.5 km/h 37 km/h 89 % 0 mm 5 W/m2
08:25 6.3 °C 4.4 °C 1019.5 hPa South 14.5 km/h 35.4 km/h 88 % 0 mm 7 W/m2
08:30 6.3 °C 4.4 °C 1019.2 hPa South 14.5 km/h 22.5 km/h 88 % 0 mm 11 W/m2
08:35 6.4 °C 4.6 °C 1019.2 hPa South 20.9 km/h 33.8 km/h 88 % 0 mm 11 W/m2
08:40 6.4 °C 4.6 °C 1019.5 hPa South 17.7 km/h 29 km/h 88 % 0 mm 11 W/m2
08:45 6.4 °C 4.6 °C 1019.5 hPa SSW 19.3 km/h 32.2 km/h 88 % 0 mm 12 W/m2
08:50 6.4 °C 4.6 °C 1019.2 hPa South 14.5 km/h 24.1 km/h 88 % 0 mm 16 W/m2
08:55 6.4 °C 4.6 °C 1018.8 hPa SSW 20.9 km/h 33.8 km/h 88 % 0 mm 19 W/m2
09:00 6.4 °C 4.6 °C 1018.8 hPa South 20.9 km/h 35.4 km/h 88 % 0 mm 23 W/m2
09:05 6.4 °C 4.7 °C 1018.8 hPa South 19.3 km/h 33.8 km/h 89 % 0 mm 25 W/m2
09:11 6.5 °C 4.8 °C 1018.8 hPa South 17.7 km/h 30.6 km/h 89 % 0 mm 23 W/m2
09:16 6.5 °C 4.8 °C 1018.8 hPa South 14.5 km/h 25.7 km/h 89 % 0 mm 28 W/m2
09:21 6.5 °C 4.8 °C 1018.8 hPa South 17.7 km/h 33.8 km/h 89 % 0 mm 30 W/m2
09:26 6.6 °C 4.9 °C 1018.5 hPa SSW 19.3 km/h 29 km/h 89 % 0 mm 28 W/m2
09:31 6.6 °C 4.9 °C 1018.5 hPa SSW 17.7 km/h 29 km/h 89 % 0 mm 28 W/m2
09:36 6.6 °C 4.9 °C 1018.5 hPa SSW 17.7 km/h 30.6 km/h 89 % 0 mm 30 W/m2
09:41 6.7 °C 5 °C 1018.2 hPa SSW 20.9 km/h 32.2 km/h 89 % 0 mm 28 W/m2
09:46 6.6 °C 4.9 °C 1018.2 hPa SSW 16.1 km/h 24.1 km/h 89 % 0 mm 26 W/m2
09:51 6.6 °C 5.1 °C 1018.2 hPa SSW 16.1 km/h 33.8 km/h 90 % 0 mm 28 W/m2
09:56 6.6 °C 5.1 °C 1018.2 hPa SSW 17.7 km/h 24.1 km/h 90 % 0 mm 30 W/m2
10:01 6.7 °C 5.3 °C 1017.8 hPa SSW 20.9 km/h 35.4 km/h 91 % 0 mm 37 W/m2
10:06 6.7 °C 5.3 °C 1017.8 hPa SSW 16.1 km/h 30.6 km/h 91 % 0 mm 35 W/m2
10:11 6.7 °C 5.3 °C 1017.8 hPa SSW 16.1 km/h 30.6 km/h 91 % 0 mm 39 W/m2
10:16 6.7 °C 5.3 °C 1017.8 hPa South 19.3 km/h 35.4 km/h 91 % 0 mm 39 W/m2
10:21 6.8 °C 5.4 °C 1017.8 hPa SSW 14.5 km/h 25.7 km/h 91 % 0 mm 40 W/m2
10:26 6.8 °C 5.4 °C 1017.8 hPa SSW 16.1 km/h 22.5 km/h 91 % 0 mm 33 W/m2
10:31 6.9 °C 5.6 °C 1017.8 hPa SSW 20.9 km/h 33.8 km/h 91 % 0 mm 33 W/m2
10:36 7 °C 5.6 °C 1017.8 hPa SSW 19.3 km/h 33.8 km/h 91 % 0 mm 47 W/m2
10:41 7.1 °C 5.7 °C 1017.8 hPa SW 22.5 km/h 37 km/h 91 % 0 mm 53 W/m2
10:46 7.1 °C 5.7 °C 1017.8 hPa SSW 24.1 km/h 45.1 km/h 91 % 0 mm 63 W/m2
10:51 7.1 °C 5.7 °C 1017.8 hPa SW 27.4 km/h 41.8 km/h 91 % 0 mm 67 W/m2
10:56 7.2 °C 5.8 °C 1017.5 hPa SW 25.7 km/h 37 km/h 91 % 0 mm 62 W/m2
11:01 7.2 °C 5.8 °C 1017.5 hPa SW 22.5 km/h 35.4 km/h 91 % 0 mm 58 W/m2
11:06 7.2 °C 5.8 °C 1017.5 hPa SW 25.7 km/h 40.2 km/h 91 % 0 mm 53 W/m2
11:11 7.2 °C 5.8 °C 1017.5 hPa SW 25.7 km/h 38.6 km/h 91 % 0 mm 51 W/m2
11:16 7.2 °C 5.8 °C 1017.5 hPa SSW 19.3 km/h 38.6 km/h 91 % 0 mm 51 W/m2
11:21 7.2 °C 5.8 °C 1017.5 hPa SW 19.3 km/h 29 km/h 91 % 0 mm 49 W/m2
11:26 7.2 °C 5.8 °C 1017.5 hPa SW 22.5 km/h 37 km/h 91 % 0 mm 53 W/m2
11:31 7.2 °C 5.8 °C 1017.2 hPa SW 22.5 km/h 43.5 km/h 91 % 0 mm 62 W/m2
11:36 7.2 °C 5.8 °C 1017.5 hPa SW 22.5 km/h 37 km/h 91 % 0 mm 63 W/m2
11:41 7.3 °C 5.9 °C 1017.2 hPa SW 27.4 km/h 43.5 km/h 91 % 0 mm 63 W/m2
11:46 7.3 °C 5.9 °C 1017.2 hPa SW 24.1 km/h 40.2 km/h 91 % 0 mm 65 W/m2
11:51 7.3 °C 6.1 °C 1017.2 hPa SW 25.7 km/h 38.6 km/h 92 % 0 mm 70 W/m2
11:56 7.4 °C 6 °C 1017.2 hPa SW 32.2 km/h 48.3 km/h 91 % 0 mm 76 W/m2
12:01 7.4 °C 6.2 °C 1017.2 hPa SW 27.4 km/h 53.1 km/h 92 % 0 mm 81 W/m2
12:06 7.4 °C 6.2 °C 1017.2 hPa SW 25.7 km/h 40.2 km/h 92 % 0 mm 91 W/m2
12:11 7.5 °C 6.3 °C 1017.2 hPa SW 20.9 km/h 30.6 km/h 92 % 0 mm 100 W/m2
12:16 7.6 °C 6.4 °C 1017.2 hPa SW 22.5 km/h 35.4 km/h 92 % 0 mm 98 W/m2
12:21 7.7 °C 6.5 °C 1017.2 hPa SW 24.1 km/h 33.8 km/h 92 % 0 mm 97 W/m2
12:26 7.8 °C 6.6 °C 1017.2 hPa SW 24.1 km/h 37 km/h 92 % 0 mm 91 W/m2
12:45 8.1 °C 6.7 °C 1016.8 hPa SW 37 km/h 37 km/h 91 % 0 mm 91 W/m2
13:00 8.4 °C 7 °C 1016.5 hPa SW 38.6 km/h 38.6 km/h 91 % 0 mm 81 W/m2
13:15 8.6 °C 7.4 °C 1016.5 hPa SW 30.6 km/h 30.6 km/h 92 % 0 mm 69 W/m2
13:30 8.8 °C 7.6 °C 1016.5 hPa SW 30.6 km/h 30.6 km/h 92 % 0 mm 68 W/m2
13:45 9.1 °C 7.7 °C 1016.5 hPa SW 29 km/h 29 km/h 91 % 0 mm 52 W/m2
14:00 9.3 °C 7.9 °C 1016.1 hPa SW 32.2 km/h 32.2 km/h 91 % 0 mm 89 W/m2
14:15 9.7 °C 8.3 °C 1015.5 hPa SW 30.6 km/h 30.6 km/h 91 % 0 mm 130 W/m2
14:30 10.1 °C 8.6 °C 1015.5 hPa SW 30.6 km/h 30.6 km/h 90 % 0 mm 117 W/m2
14:45 10.3 °C 8.6 °C 1015.8 hPa SW 32.2 km/h 32.2 km/h 89 % 0 mm 129 W/m2
15:00 10.6 °C 8.9 °C 1016.1 hPa SW 25.7 km/h 25.7 km/h 89 % 0 mm 116 W/m2
15:15 10.8 °C 9.1 °C 1016.5 hPa SW 20.9 km/h 20.9 km/h 89 % 0 mm 72 W/m2
15:30 11.3 °C 9.4 °C 1016.5 hPa WSW 32.2 km/h 32.2 km/h 88 % 0 mm 34 W/m2
15:45 11.4 °C 9.4 °C 1016.5 hPa SW 32.2 km/h 32.2 km/h 88 % 0 mm 17 W/m2
16:00 11.8 °C 9.5 °C 1016.5 hPa WSW 35.4 km/h 35.4 km/h 86 % 0 mm 18 W/m2
16:15 12.1 °C 9.8 °C 1016.1 hPa WSW 38.6 km/h 38.6 km/h 86 % 0 mm 8 W/m2
16:30 12.2 °C 9.9 °C 1016.5 hPa WSW 43.5 km/h 43.5 km/h 86 % 0 mm 1 W/m2
16:45 12.1 °C 10 °C 1016.8 hPa WSW 32.2 km/h 32.2 km/h 87 % 0 mm 0 W/m2
17:00 12 °C 9.7 °C 1016.8 hPa WSW 40.2 km/h 40.2 km/h 86 % 0 mm 0 W/m2
17:15 12.2 °C 9.7 °C 1017.2 hPa WSW 48.3 km/h 48.3 km/h 85 % 0 mm 0 W/m2
17:30 12.2 °C 9.7 °C 1017.5 hPa WSW 41.8 km/h 41.8 km/h 85 % 0 mm 0 W/m2
18:06 12.2 °C 9.9 °C 1017.5 hPa West 17.7 km/h 22.5 km/h 86 % 0 mm 0 W/m2
18:11 12.2 °C 9.9 °C 1017.5 hPa West 22.5 km/h 37 km/h 86 % 0 mm 0 W/m2
18:16 12.2 °C 9.9 °C 1017.2 hPa West 29 km/h 46.7 km/h 86 % 0 mm 0 W/m2
18:22 12.2 °C 9.9 °C 1017.5 hPa West 17.7 km/h 30.6 km/h 86 % 0 mm 0 W/m2
18:27 12.2 °C 9.9 °C 1017.5 hPa West 20.9 km/h 33.8 km/h 86 % 0 mm 0 W/m2
18:32 12.1 °C 9.7 °C 1017.5 hPa West 25.7 km/h 43.5 km/h 85 % 0 mm 0 W/m2
18:37 12.2 °C 9.8 °C 1017.5 hPa West 24.1 km/h 37 km/h 85 % 0 mm 0 W/m2
18:42 12.2 °C 9.8 °C 1017.5 hPa WSW 27.4 km/h 41.8 km/h 85 % 0 mm 0 W/m2
18:47 12.2 °C 9.6 °C 1018.2 hPa West 27.4 km/h 40.2 km/h 84 % 0 mm 0 W/m2
18:52 12.1 °C 9.5 °C 1017.8 hPa West 24.1 km/h 37 km/h 84 % 0 mm 0 W/m2
18:57 12.1 °C 9.5 °C 1018.2 hPa West 33.8 km/h 51.5 km/h 84 % 0 mm 0 W/m2
19:02 12.1 °C 9.5 °C 1018.2 hPa West 25.7 km/h 45.1 km/h 84 % 0 mm 0 W/m2
19:07 11.9 °C 9.3 °C 1018.2 hPa West 27.4 km/h 40.2 km/h 84 % 0 mm 0 W/m2
19:12 11.8 °C 9 °C 1018.2 hPa West 27.4 km/h 38.6 km/h 83 % 0 mm 0 W/m2
19:17 11.8 °C 9 °C 1018.2 hPa West 17.7 km/h 33.8 km/h 83 % 0 mm 0 W/m2
19:22 11.8 °C 9 °C 1018.2 hPa WNW 20.9 km/h 32.2 km/h 83 % 0 mm 0 W/m2
19:27 11.7 °C 8.9 °C 1018.2 hPa West 24.1 km/h 35.4 km/h 83 % 0 mm 0 W/m2
19:32 11.7 °C 8.7 °C 1018.2 hPa West 25.7 km/h 48.3 km/h 82 % 0 mm 0 W/m2
19:37 11.7 °C 8.7 °C 1018.2 hPa West 19.3 km/h 29 km/h 82 % 0 mm 0 W/m2
19:42 11.6 °C 8.4 °C 1018.2 hPa West 29 km/h 45.1 km/h 81 % 0 mm 0 W/m2
19:47 11.6 °C 8.3 °C 1018.5 hPa West 27.4 km/h 46.7 km/h 80 % 0 mm 0 W/m2
19:52 11.6 °C 8.3 °C 1018.5 hPa West 24.1 km/h 37 km/h 80 % 0 mm 0 W/m2
19:57 11.5 °C 8.2 °C 1018.8 hPa West 29 km/h 53.1 km/h 80 % 0 mm 0 W/m2
20:02 11.4 °C 7.9 °C 1018.8 hPa WNW 33.8 km/h 45.1 km/h 79 % 0 mm 0 W/m2
20:07 11.3 °C 7.8 °C 1019.2 hPa West 19.3 km/h 35.4 km/h 79 % 0 mm 0 W/m2
20:13 11.2 °C 7.7 °C 1019.2 hPa WNW 24.1 km/h 43.5 km/h 79 % 0 mm 0 W/m2
20:17 11.2 °C 7.7 °C 1019.2 hPa West 25.7 km/h 43.5 km/h 79 % 0 mm 0 W/m2
20:23 11.2 °C 7.7 °C 1019.2 hPa West 24.1 km/h 38.6 km/h 79 % 0 mm 0 W/m2
20:28 11.1 °C 7.8 °C 1019.2 hPa West 19.3 km/h 35.4 km/h 80 % 0 mm 0 W/m2
20:33 11.1 °C 7.8 °C 1019.5 hPa West 20.9 km/h 40.2 km/h 80 % 0 mm 0 W/m2
20:38 11 °C 7.5 °C 1019.5 hPa West 22.5 km/h 35.4 km/h 79 % 0 mm 0 W/m2
20:43 11 °C 7.5 °C 1019.9 hPa West 20.9 km/h 38.6 km/h 79 % 0 mm 0 W/m2
20:48 10.9 °C 7.4 °C 1019.9 hPa West 14.5 km/h 25.7 km/h 79 % 0 mm 0 W/m2
20:53 10.8 °C 7.3 °C 1019.9 hPa West 22.5 km/h 35.4 km/h 79 % 0 mm 0 W/m2
20:58 10.7 °C 7.2 °C 1019.9 hPa West 16.1 km/h 24.1 km/h 79 % 0 mm 0 W/m2
21:03 10.7 °C 7.2 °C 1019.9 hPa West 22.5 km/h 38.6 km/h 79 % 0 mm 0 W/m2
21:08 10.6 °C 7.1 °C 1019.9 hPa West 27.4 km/h 41.8 km/h 79 % 0 mm 0 W/m2
21:13 10.5 °C 7 °C 1019.9 hPa West 19.3 km/h 37 km/h 79 % 0 mm 0 W/m2
21:18 10.4 °C 6.9 °C 1019.9 hPa West 19.3 km/h 30.6 km/h 79 % 0 mm 0 W/m2
21:23 10.3 °C 6.8 °C 1020.2 hPa West 16.1 km/h 24.1 km/h 79 % 0 mm 0 W/m2
21:28 10.1 °C 6.4 °C 1020.2 hPa West 19.3 km/h 32.2 km/h 78 % 0 mm 0 W/m2
21:33 10.1 °C 6.4 °C 1020.2 hPa West 19.3 km/h 30.6 km/h 78 % 0 mm 0 W/m2
21:38 10 °C 6.3 °C 1020.5 hPa West 20.9 km/h 33.8 km/h 78 % 0 mm 0 W/m2
21:43 9.9 °C 6.1 °C 1020.5 hPa West 22.5 km/h 35.4 km/h 77 % 0 mm 0 W/m2
21:48 9.9 °C 6.1 °C 1020.9 hPa West 20.9 km/h 32.2 km/h 77 % 0 mm 0 W/m2
21:53 9.8 °C 5.9 °C 1020.9 hPa West 25.7 km/h 38.6 km/h 77 % 0 mm 0 W/m2
21:58 9.7 °C 5.7 °C 1020.9 hPa West 22.5 km/h 38.6 km/h 76 % 0 mm 0 W/m2
22:03 9.6 °C 5.6 °C 1020.9 hPa West 22.5 km/h 32.2 km/h 76 % 0 mm 0 W/m2
22:08 9.5 °C 5.5 °C 1020.9 hPa West 22.5 km/h 32.2 km/h 76 % 0 mm 0 W/m2
22:13 9.4 °C 5.4 °C 1021.2 hPa West 22.5 km/h 37 km/h 76 % 0 mm 0 W/m2
22:18 9.4 °C 5.4 °C 1021.2 hPa WNW 19.3 km/h 37 km/h 76 % 0 mm 0 W/m2
22:23 9.4 °C 5.4 °C 1021.6 hPa WNW 24.1 km/h 37 km/h 76 % 0 mm 0 W/m2
22:28 9.3 °C 5.3 °C 1021.6 hPa WNW 16.1 km/h 22.5 km/h 76 % 0 mm 0 W/m2
22:33 9.3 °C 5.3 °C 1021.6 hPa WNW 20.9 km/h 33.8 km/h 76 % 0 mm 0 W/m2
22:38 9.3 °C 5.3 °C 1021.9 hPa WNW 16.1 km/h 30.6 km/h 76 % 0 mm 0 W/m2
22:43 9.3 °C 5.4 °C 1021.9 hPa WNW 17.7 km/h 25.7 km/h 77 % 0 mm 0 W/m2
22:48 9.3 °C 5.7 °C 1022.2 hPa West 14.5 km/h 22.5 km/h 78 % 0 mm 0 W/m2
22:53 9.3 °C 5.7 °C 1022.2 hPa West 17.7 km/h 32.2 km/h 78 % 0 mm 0 W/m2
22:58 9.3 °C 5.8 °C 1021.9 hPa West 11.3 km/h 20.9 km/h 79 % 0 mm 0 W/m2
23:03 9.2 °C 5.7 °C 1021.9 hPa West 14.5 km/h 20.9 km/h 79 % 0 mm 0 W/m2
23:08 9.1 °C 5.7 °C 1021.9 hPa West 19.3 km/h 30.6 km/h 79 % 0 mm 0 W/m2
23:13 9.1 °C 5.7 °C 1021.9 hPa West 17.7 km/h 25.7 km/h 79 % 0 mm 0 W/m2
23:18 9.1 °C 5.7 °C 1022.2 hPa West 19.3 km/h 32.2 km/h 79 % 0 mm 0 W/m2
23:23 9 °C 5.7 °C 1021.9 hPa West 14.5 km/h 25.7 km/h 80 % 0 mm 0 W/m2
23:28 8.9 °C 5.6 °C 1021.9 hPa West 22.5 km/h 37 km/h 80 % 0 mm 0 W/m2
23:33 8.9 °C 5.6 °C 1022.2 hPa West 22.5 km/h 38.6 km/h 80 % 0 mm 0 W/m2
23:38 9 °C 5.7 °C 1022.2 hPa West 19.3 km/h 32.2 km/h 80 % 0 mm 0 W/m2
23:43 8.9 °C 5.8 °C 1022.2 hPa West 22.5 km/h 35.4 km/h 81 % 0 mm 0 W/m2
23:48 8.9 °C 5.8 °C 1022.6 hPa West 20.9 km/h 30.6 km/h 81 % 0 mm 0 W/m2
23:54 8.8 °C 5.7 °C 1022.6 hPa West 16.1 km/h 25.7 km/h 81 % 0 mm 0 W/m2
23:59 8.8 °C 5.7 °C 1022.6 hPa West 22.5 km/h 35.4 km/h 81 % 0 mm 0 W/m2
Delerius-Weather
Compliments of Weather Underground - 2 mb

Data updates at regular intervals.